createdAt,value
2023-05-07T00:02:02.700Z,9.73
2023-05-07T00:04:29.919Z,9.70
2023-05-07T00:06:56.990Z,14.00
2023-05-07T00:09:23.892Z,95.60
2023-05-07T00:11:51.099Z,114.87
2023-05-07T00:14:17.960Z,66.77
2023-05-07T00:16:45.013Z,22.67
2023-05-07T00:19:12.088Z,18.83
2023-05-07T00:21:39.191Z,12.20
2023-05-07T00:24:06.259Z,10.70
2023-05-07T00:26:33.231Z,9.90
2023-05-07T00:29:00.118Z,10.77
2023-05-07T00:31:27.301Z,10.90
2023-05-07T00:33:54.228Z,22.87
2023-05-07T00:36:21.171Z,54.13
2023-05-07T00:38:48.062Z,59.93
2023-05-07T00:41:15.003Z,95.60
2023-05-07T00:43:41.899Z,81.87
2023-05-07T00:46:09.125Z,54.10
2023-05-07T00:48:36.350Z,40.67
2023-05-07T00:51:03.720Z,24.90
2023-05-07T00:53:31.760Z,21.30
2023-05-07T00:55:58.836Z,26.57
2023-05-07T00:58:25.956Z,16.30
2023-05-07T01:00:52.953Z,16.40
2023-05-07T01:03:19.963Z,12.77
2023-05-07T01:05:49.141Z,13.93
2023-05-07T01:08:17.764Z,11.27
2023-05-07T01:10:45.862Z,10.17
2023-05-07T01:13:15.363Z,9.90
2023-05-07T01:15:42.284Z,10.50
2023-05-07T01:18:09.293Z,10.50
2023-05-07T01:20:36.422Z,9.90
2023-05-07T01:23:04.779Z,8.80
2023-05-07T01:25:32.084Z,10.53
2023-05-07T01:28:01.053Z,9.20
2023-05-07T01:30:28.885Z,11.77
2023-05-07T01:33:05.646Z,9.43
2023-05-07T01:35:40.563Z,9.70
2023-05-07T01:38:08.842Z,9.10
2023-05-07T01:40:36.000Z,9.90
2023-05-07T01:43:04.265Z,8.80
2023-05-07T01:45:32.868Z,9.33
2023-05-07T01:48:00.670Z,9.07
2023-05-07T01:50:28.392Z,9.10
2023-05-07T01:52:55.819Z,9.27
2023-05-07T01:55:22.809Z,8.43
2023-05-07T01:57:49.830Z,9.17
2023-05-07T02:00:17.092Z,9.20
2023-05-07T02:02:44.221Z,9.00
2023-05-07T02:05:11.279Z,9.60
2023-05-07T02:07:38.180Z,7.93
2023-05-07T02:10:06.201Z,9.40
2023-05-07T02:12:33.062Z,9.87
2023-05-07T02:14:59.988Z,8.67
2023-05-07T02:17:27.076Z,9.07
2023-05-07T02:19:54.122Z,7.90
2023-05-07T02:22:21.587Z,8.90
2023-05-07T02:24:48.483Z,8.77
2023-05-07T02:27:15.452Z,8.90
2023-05-07T02:29:42.408Z,8.97
2023-05-07T02:32:09.418Z,8.30
2023-05-07T02:34:36.421Z,9.03
2023-05-07T02:37:03.266Z,9.20
2023-05-07T02:39:30.169Z,9.07
2023-05-07T02:41:57.028Z,8.40
2023-05-07T02:44:24.099Z,10.90
2023-05-07T02:46:50.942Z,8.80
2023-05-07T02:49:17.741Z,9.43
2023-05-07T02:51:44.590Z,9.03
2023-05-07T02:54:11.626Z,9.17
2023-05-07T02:56:38.512Z,9.30
2023-05-07T02:59:05.622Z,11.23
2023-05-07T03:01:32.555Z,9.10
2023-05-07T03:03:59.472Z,10.13
2023-05-07T03:06:27.204Z,14.00
2023-05-07T03:08:54.125Z,9.47
2023-05-07T03:11:21.155Z,10.23
2023-05-07T03:13:50.143Z,9.97
2023-05-07T03:16:17.159Z,10.60
2023-05-07T03:18:44.161Z,11.27
2023-05-07T03:21:11.036Z,12.30
2023-05-07T03:23:37.962Z,13.10
2023-05-07T03:26:04.909Z,11.27
2023-05-07T03:28:31.765Z,13.23
2023-05-07T03:30:58.792Z,12.43
2023-05-07T03:33:25.814Z,12.13
2023-05-07T03:35:52.725Z,10.73
2023-05-07T03:38:19.544Z,9.73
2023-05-07T03:40:46.427Z,11.40
2023-05-07T03:43:13.377Z,11.00
2023-05-07T03:45:40.287Z,15.70
2023-05-07T03:48:07.237Z,16.23
2023-05-07T03:50:34.247Z,12.63
2023-05-07T03:53:01.156Z,11.50
2023-05-07T03:55:28.295Z,11.30
2023-05-07T03:57:55.283Z,13.93
2023-05-07T04:00:23.238Z,14.33
2023-05-07T04:02:50.273Z,15.47
2023-05-07T04:08:02.091Z,16.13
2023-05-07T04:10:30.377Z,16.10
2023-05-07T04:12:58.196Z,19.60
2023-05-07T04:15:25.500Z,19.83
2023-05-07T04:17:52.525Z,18.50
2023-05-07T04:20:19.615Z,17.23
2023-05-07T04:22:46.525Z,26.27
2023-05-07T04:25:13.474Z,33.40
2023-05-07T04:27:40.786Z,27.57
2023-05-07T04:30:08.607Z,20.83
2023-05-07T04:32:37.026Z,26.23
2023-05-07T04:35:04.507Z,63.53
2023-05-07T04:37:33.455Z,30.00
2023-05-07T04:40:01.505Z,112.33
2023-05-07T04:42:28.508Z,121.07
2023-05-07T04:44:55.797Z,112.87
2023-05-07T04:47:22.711Z,66.30
2023-05-07T04:49:49.644Z,44.67
2023-05-07T04:52:16.807Z,52.47
2023-05-07T04:54:43.692Z,57.60
2023-05-07T04:57:10.732Z,57.10
2023-05-07T04:59:37.722Z,62.03
2023-05-07T05:02:07.463Z,62.93
2023-05-07T05:04:34.356Z,55.33
2023-05-07T05:07:01.310Z,65.30
2023-05-07T05:09:28.145Z,45.63
2023-05-07T05:11:55.351Z,34.80
2023-05-07T05:14:22.338Z,55.53
2023-05-07T05:16:49.232Z,105.77
2023-05-07T05:19:16.149Z,126.63
2023-05-07T05:21:43.223Z,125.03
2023-05-07T05:24:10.090Z,109.80
2023-05-07T05:26:36.957Z,75.23
2023-05-07T05:29:03.877Z,132.37
2023-05-07T05:31:31.030Z,108.17
2023-05-07T05:33:57.955Z,61.13
2023-05-07T05:36:24.901Z,34.57
2023-05-07T05:38:51.781Z,35.07
2023-05-07T05:41:18.683Z,27.40
2023-05-07T05:43:45.578Z,26.20
2023-05-07T05:46:13.114Z,24.67
2023-05-07T05:48:40.078Z,33.93
2023-05-07T05:51:07.095Z,25.70
2023-05-07T05:53:34.179Z,27.20
2023-05-07T05:56:01.236Z,30.37
2023-05-07T05:58:28.277Z,30.73
2023-05-07T06:00:55.734Z,23.50
2023-05-07T06:03:22.854Z,22.47
2023-05-07T06:05:49.842Z,20.40
2023-05-07T06:08:16.901Z,19.83
2023-05-07T06:10:43.874Z,27.80
2023-05-07T06:13:10.870Z,23.73
2023-05-07T06:15:38.047Z,21.17
2023-05-07T06:18:04.971Z,26.93
2023-05-07T06:20:31.895Z,29.13
2023-05-07T06:22:58.805Z,31.33
2023-05-07T06:25:25.668Z,21.57
2023-05-07T06:27:52.577Z,41.97
2023-05-07T06:30:19.691Z,54.13
2023-05-07T06:32:46.803Z,30.53
2023-05-07T06:35:13.801Z,50.90
2023-05-07T06:37:43.580Z,31.57
2023-05-07T06:40:11.775Z,25.40
2023-05-07T06:42:38.898Z,46.43
2023-05-07T06:45:06.509Z,56.20
2023-05-07T06:47:33.409Z,39.70
2023-05-07T06:50:00.367Z,31.33
2023-05-07T06:52:27.470Z,27.33
2023-05-07T06:54:54.455Z,54.13
2023-05-07T06:57:21.434Z,57.57
2023-05-07T06:59:48.610Z,37.30
2023-05-07T07:02:17.706Z,61.20
2023-05-07T07:04:46.241Z,31.80
2023-05-07T07:07:13.319Z,37.73
2023-05-07T07:09:40.214Z,35.93
2023-05-07T07:12:07.357Z,65.33
2023-05-07T07:14:34.280Z,49.93
2023-05-07T07:17:01.164Z,33.63
2023-05-07T07:19:28.137Z,24.13
2023-05-07T07:21:55.154Z,64.03
2023-05-07T07:24:22.669Z,31.17
2023-05-07T07:26:49.677Z,30.20
2023-05-07T07:29:16.590Z,25.23
2023-05-07T07:31:43.749Z,25.07
2023-05-07T07:34:10.652Z,24.43
2023-05-07T07:36:45.722Z,33.10
2023-05-07T07:39:14.227Z,37.03
2023-05-07T07:41:41.118Z,47.20
2023-05-07T07:44:08.776Z,49.60
2023-05-07T07:46:35.918Z,48.13
2023-05-07T07:49:03.040Z,53.47
2023-05-07T07:51:29.926Z,55.23
2023-05-07T07:53:58.790Z,42.43
2023-05-07T07:56:26.004Z,39.20
2023-05-07T07:58:53.209Z,43.00
2023-05-07T08:01:20.152Z,28.30
2023-05-07T08:03:47.138Z,20.50
2023-05-07T08:06:15.300Z,22.60
2023-05-07T08:08:42.335Z,19.83
2023-05-07T08:11:09.287Z,22.37
2023-05-07T08:13:36.430Z,17.90
2023-05-07T08:16:03.531Z,26.60
2023-05-07T08:18:30.526Z,24.40
2023-05-07T08:20:57.519Z,18.90
2023-05-07T08:23:24.431Z,22.57
2023-05-07T08:25:52.282Z,40.30
2023-05-07T08:28:20.471Z,22.53
2023-05-07T08:30:47.759Z,23.43
2023-05-07T08:33:14.707Z,19.73
2023-05-07T08:35:41.608Z,25.53
2023-05-07T08:38:08.553Z,25.03
2023-05-07T08:40:39.300Z,20.37
2023-05-07T08:43:09.379Z,24.17
2023-05-07T08:45:37.140Z,19.53
2023-05-07T08:48:10.569Z,19.30
2023-05-07T08:50:38.050Z,20.97
2023-05-07T08:53:06.166Z,24.20
2023-05-07T08:55:34.356Z,26.40
2023-05-07T08:58:02.390Z,26.00
2023-05-07T09:00:29.316Z,24.80
2023-05-07T09:02:56.270Z,35.83
2023-05-07T09:05:23.199Z,24.40
2023-05-07T09:07:53.895Z,21.80
2023-05-07T09:10:22.401Z,19.10
2023-05-07T09:12:49.379Z,20.37
2023-05-07T09:15:16.708Z,21.63
2023-05-07T09:17:44.615Z,29.03
2023-05-07T09:20:11.854Z,17.80
2023-05-07T09:22:39.114Z,21.23
2023-05-07T09:25:08.270Z,18.10
2023-05-07T09:27:35.279Z,17.20
2023-05-07T09:30:11.907Z,19.10
2023-05-07T09:32:39.524Z,18.73
2023-05-07T09:35:07.223Z,19.17
2023-05-07T09:37:34.548Z,20.20
2023-05-07T09:40:01.523Z,15.37
2023-05-07T09:42:28.615Z,17.37
2023-05-07T09:44:55.548Z,16.77
2023-05-07T09:47:25.821Z,20.30
2023-05-07T09:49:58.609Z,19.30
2023-05-07T09:52:29.703Z,29.00
2023-05-07T09:55:00.982Z,19.70
2023-05-07T09:57:29.043Z,15.77
2023-05-07T09:59:57.938Z,18.10
2023-05-07T10:02:26.917Z,15.87
2023-05-07T10:04:55.260Z,20.63
2023-05-07T10:07:22.990Z,20.23
2023-05-07T10:09:51.469Z,16.20
2023-05-07T10:12:19.822Z,14.53
2023-05-07T10:14:47.737Z,16.00
2023-05-07T10:17:16.661Z,13.53
2023-05-07T10:19:46.000Z,14.07
2023-05-07T10:22:15.154Z,16.20
2023-05-07T10:24:42.865Z,19.83
2023-05-07T10:27:13.412Z,15.80
2023-05-07T10:30:40.669Z,13.57
2023-05-07T10:33:11.890Z,13.97
2023-05-07T10:35:48.250Z,15.70
2023-05-07T10:38:15.419Z,20.23
2023-05-07T10:40:42.445Z,15.20
2023-05-07T10:43:10.916Z,16.00
2023-05-07T10:45:38.084Z,11.10
2023-05-07T10:48:29.411Z,19.43
2023-05-07T10:51:33.650Z,13.73
2023-05-07T10:54:32.624Z,11.67
2023-05-07T10:57:37.621Z,16.97
2023-05-07T11:00:38.000Z,10.40
2023-05-07T11:03:10.246Z,11.83
2023-05-07T11:05:38.450Z,11.10
2023-05-07T11:08:06.418Z,10.60
2023-05-07T11:10:49.515Z,10.80
2023-05-07T11:13:16.948Z,11.67
2023-05-07T11:15:46.928Z,9.87
2023-05-07T11:18:16.694Z,7.47
2023-05-07T11:20:57.988Z,8.40
2023-05-07T11:23:56.698Z,9.67
2023-05-07T11:26:23.803Z,10.17
2023-05-07T11:28:51.559Z,8.10
2023-05-07T11:31:23.625Z,11.10
2023-05-07T11:33:51.377Z,9.00
2023-05-07T11:36:20.347Z,6.33
2023-05-07T11:38:47.394Z,7.27
2023-05-07T11:41:14.341Z,7.60
2023-05-07T11:43:57.140Z,7.47
2023-05-07T11:46:24.287Z,10.93
2023-05-07T11:48:51.631Z,10.20
2023-05-07T11:51:27.325Z,10.63
2023-05-07T11:53:54.579Z,9.10
2023-05-07T11:56:22.019Z,8.67
2023-05-07T11:58:49.449Z,10.10
2023-05-07T12:01:17.545Z,12.20
2023-05-07T12:03:47.453Z,9.43
2023-05-07T12:06:16.741Z,7.70
2023-05-07T12:08:47.059Z,9.60
2023-05-07T12:11:26.312Z,11.63
2023-05-07T12:13:58.840Z,9.13
2023-05-07T12:16:27.205Z,10.57
2023-05-07T12:18:56.291Z,9.10
2023-05-07T12:21:24.398Z,9.17
2023-05-07T12:23:51.529Z,10.13
2023-05-07T12:26:20.148Z,8.77
2023-05-07T12:28:47.584Z,9.53
2023-05-07T12:31:16.102Z,10.17
2023-05-07T12:33:43.431Z,9.13
2023-05-07T12:36:13.276Z,10.07
2023-05-07T12:38:42.098Z,10.13
2023-05-07T12:41:11.125Z,9.00
2023-05-07T12:43:38.162Z,9.03
2023-05-07T12:46:07.684Z,9.17
2023-05-07T12:48:34.926Z,8.20
2023-05-07T12:51:03.362Z,9.03
2023-05-07T12:53:30.876Z,8.43
2023-05-07T12:55:59.857Z,8.70
2023-05-07T12:58:31.942Z,9.30
2023-05-07T13:01:01.654Z,8.97
2023-05-07T13:03:33.383Z,18.27
2023-05-07T13:06:05.594Z,8.27
2023-05-07T13:08:46.257Z,7.93
2023-05-07T13:11:14.135Z,7.80
2023-05-07T13:13:42.398Z,8.23
2023-05-07T13:16:11.167Z,9.50
2023-05-07T13:18:40.021Z,8.43
2023-05-07T13:21:07.212Z,8.00
2023-05-07T13:23:34.071Z,8.37
2023-05-07T13:26:04.146Z,7.63
2023-05-07T13:28:33.119Z,8.53
2023-05-07T13:31:00.134Z,8.57
2023-05-07T13:33:26.988Z,8.77
2023-05-07T13:35:54.046Z,8.10
2023-05-07T13:38:21.639Z,8.03
2023-05-07T13:40:49.937Z,7.10
2023-05-07T13:43:18.581Z,8.30
2023-05-07T13:45:45.679Z,7.57
2023-05-07T13:48:12.581Z,7.40
2023-05-07T13:50:39.578Z,7.90
2023-05-07T13:53:06.523Z,8.30
2023-05-07T13:55:33.513Z,8.03
2023-05-07T13:58:01.769Z,7.20
2023-05-07T14:00:30.081Z,7.97
2023-05-07T14:02:57.870Z,7.47
2023-05-07T14:05:25.698Z,9.33
2023-05-07T14:07:53.031Z,8.20
2023-05-07T14:10:20.779Z,8.23
2023-05-07T14:12:48.495Z,10.00
2023-05-07T14:15:17.139Z,8.37
2023-05-07T14:17:45.092Z,8.27
2023-05-07T14:20:13.308Z,10.70
2023-05-07T14:22:40.642Z,9.07
2023-05-07T14:25:08.463Z,7.47
2023-05-07T14:27:35.385Z,10.53
2023-05-07T14:30:02.426Z,11.93
2023-05-07T14:32:29.433Z,9.67
2023-05-07T14:34:56.384Z,20.57
2023-05-07T14:37:23.274Z,13.57
2023-05-07T14:39:50.970Z,14.93
2023-05-07T14:42:18.680Z,10.10
2023-05-07T14:44:46.665Z,7.60
2023-05-07T14:47:14.175Z,8.57
2023-05-07T14:49:42.082Z,8.43
2023-05-07T14:52:11.071Z,8.33
2023-05-07T14:54:39.443Z,10.50
2023-05-07T14:57:07.529Z,8.93
2023-05-07T14:59:34.839Z,9.27
2023-05-07T15:02:04.437Z,10.10
2023-05-07T15:04:33.215Z,7.93
2023-05-07T15:07:00.177Z,7.33
2023-05-07T15:09:27.225Z,14.07
2023-05-07T15:11:54.237Z,9.30
2023-05-07T15:14:23.100Z,9.33
2023-05-07T15:16:50.333Z,6.53
2023-05-07T15:19:18.115Z,6.83
2023-05-07T15:21:45.403Z,6.00
2023-05-07T15:24:12.305Z,6.40
2023-05-07T15:26:39.248Z,5.50
2023-05-07T15:29:11.195Z,4.40
2023-05-07T15:31:41.590Z,5.90
2023-05-07T15:34:08.604Z,5.10
2023-05-07T15:36:35.945Z,4.53
2023-05-07T15:39:04.419Z,8.40
2023-05-07T15:41:31.501Z,4.90
2023-05-07T15:43:58.504Z,4.57
2023-05-07T15:46:26.770Z,6.40
2023-05-07T15:48:54.755Z,4.47
2023-05-07T15:51:22.826Z,4.83
2023-05-07T15:53:50.399Z,2.93
2023-05-07T15:56:17.229Z,2.37
2023-05-07T15:58:44.091Z,1.30
2023-05-07T16:01:11.077Z,2.80
2023-05-07T16:03:38.955Z,3.97
2023-05-07T16:06:06.103Z,1.27
2023-05-07T16:08:33.996Z,1.60
2023-05-07T16:11:01.174Z,1.53
2023-05-07T16:13:28.184Z,1.50
2023-05-07T16:15:59.162Z,1.30
2023-05-07T16:18:26.180Z,1.10
2023-05-07T16:20:53.192Z,3.77
2023-05-07T16:23:20.895Z,5.60
2023-05-07T16:25:47.763Z,1.87
2023-05-07T16:28:14.915Z,1.30
2023-05-07T16:30:43.136Z,1.20
2023-05-07T16:33:10.447Z,1.20
2023-05-07T16:35:37.481Z,3.00
2023-05-07T16:38:09.979Z,5.87
2023-05-07T16:40:42.025Z,2.63
2023-05-07T16:43:09.360Z,1.60
2023-05-07T16:45:36.289Z,1.73
2023-05-07T16:48:04.347Z,1.50
2023-05-07T16:50:31.328Z,1.93
2023-05-07T16:52:58.248Z,4.60
2023-05-07T16:55:25.249Z,3.83
2023-05-07T16:57:52.247Z,3.30
2023-05-07T17:00:19.428Z,2.77
2023-05-07T17:02:47.101Z,2.37
2023-05-07T17:05:14.793Z,2.30
2023-05-07T17:07:43.022Z,2.67
2023-05-07T17:10:10.496Z,3.10
2023-05-07T17:12:37.972Z,3.30
2023-05-07T17:15:05.692Z,6.83
2023-05-07T17:17:33.113Z,7.17
2023-05-07T17:20:00.240Z,8.90
2023-05-07T17:22:27.463Z,9.40
2023-05-07T17:24:54.439Z,8.57
2023-05-07T17:27:21.382Z,9.47
2023-05-07T17:29:48.339Z,15.33
2023-05-07T17:32:15.592Z,9.67
2023-05-07T17:34:42.725Z,10.40
2023-05-07T17:37:09.680Z,13.00
2023-05-07T17:39:36.741Z,11.00
2023-05-07T17:42:03.866Z,13.13
2023-05-07T17:44:30.860Z,17.97
2023-05-07T17:46:57.967Z,14.50
2023-05-07T17:49:24.986Z,12.40
2023-05-07T17:51:55.414Z,11.60
2023-05-07T17:54:26.167Z,14.90
2023-05-07T17:56:53.202Z,14.50
2023-05-07T17:59:20.377Z,16.00
2023-05-07T18:01:47.507Z,12.73
2023-05-07T18:04:14.838Z,16.97
2023-05-07T18:06:42.296Z,17.77
2023-05-07T18:09:09.333Z,17.77
2023-05-07T18:11:37.376Z,17.60
2023-05-07T18:14:04.414Z,16.27
2023-05-07T18:16:31.450Z,15.17
2023-05-07T18:18:58.415Z,14.63
2023-05-07T18:21:25.494Z,12.73
2023-05-07T18:23:52.446Z,15.53
2023-05-07T18:26:19.377Z,15.30
2023-05-07T18:28:46.614Z,12.97
2023-05-07T18:31:13.858Z,16.17
2023-05-07T18:33:40.783Z,17.63
2023-05-07T18:36:07.763Z,20.53
2023-05-07T18:38:34.640Z,14.23
2023-05-07T18:41:04.390Z,14.83
2023-05-07T18:43:31.429Z,14.60
2023-05-07T18:45:58.538Z,18.87
2023-05-07T18:48:25.701Z,17.07
2023-05-07T18:50:52.789Z,15.83
2023-05-07T18:53:19.656Z,15.30
2023-05-07T18:55:51.248Z,18.07
2023-05-07T18:58:21.685Z,17.73
2023-05-07T19:00:49.203Z,15.57
2023-05-07T19:03:17.115Z,24.23
2023-05-07T19:05:44.999Z,15.20
2023-05-07T19:08:12.227Z,15.80
2023-05-07T19:10:39.350Z,16.03
2023-05-07T19:13:06.842Z,17.77
2023-05-07T19:15:34.005Z,17.73
2023-05-07T19:18:01.086Z,16.67
2023-05-07T19:20:29.142Z,15.17
2023-05-07T19:22:56.769Z,14.70
2023-05-07T19:25:23.722Z,19.37
2023-05-07T19:27:51.276Z,16.60
2023-05-07T19:30:18.586Z,17.07
2023-05-07T19:32:45.960Z,26.70
2023-05-07T19:35:13.247Z,20.93
2023-05-07T19:37:40.438Z,15.80
2023-05-07T19:40:08.906Z,19.70
2023-05-07T19:42:36.336Z,16.80
2023-05-07T19:45:04.832Z,19.33
2023-05-07T19:47:31.834Z,21.03
2023-05-07T19:49:58.942Z,17.13
2023-05-07T19:52:26.528Z,18.10
2023-05-07T19:54:53.639Z,17.10
2023-05-07T19:57:20.849Z,15.50
2023-05-07T19:59:47.760Z,19.67
2023-05-07T20:02:15.500Z,19.10
2023-05-07T20:04:42.634Z,16.83
2023-05-07T20:07:09.547Z,17.63
2023-05-07T20:09:36.492Z,17.47
2023-05-07T20:12:03.567Z,21.17
2023-05-07T20:14:30.526Z,26.43
2023-05-07T20:16:57.422Z,19.20
2023-05-07T20:19:25.109Z,23.90
2023-05-07T20:21:52.981Z,25.90
2023-05-07T20:24:19.852Z,28.50
2023-05-07T20:26:46.960Z,24.30
2023-05-07T20:29:13.861Z,16.53
2023-05-07T20:31:40.813Z,18.47
2023-05-07T20:34:08.135Z,20.03
2023-05-07T20:36:36.045Z,18.83
2023-05-07T20:39:04.334Z,15.37
2023-05-07T20:41:31.244Z,15.97
2023-05-07T20:43:58.225Z,18.13
2023-05-07T20:46:27.417Z,17.30
2023-05-07T20:48:54.880Z,17.43
2023-05-07T20:51:21.827Z,16.00
2023-05-07T20:53:48.725Z,15.33
2023-05-07T20:56:16.015Z,23.00
2023-05-07T20:58:42.966Z,18.97
2023-05-07T21:01:09.978Z,22.83
2023-05-07T21:03:36.916Z,29.47
2023-05-07T21:06:04.378Z,17.87
2023-05-07T21:08:31.469Z,22.10
2023-05-07T21:10:58.474Z,14.67
2023-05-07T21:13:25.630Z,15.90
2023-05-07T21:15:53.122Z,17.70
2023-05-07T21:18:20.170Z,17.90
2023-05-07T21:20:47.152Z,22.67
2023-05-07T21:23:14.028Z,28.27
2023-05-07T21:25:41.580Z,18.70
2023-05-07T21:28:09.428Z,25.50
2023-05-07T21:30:37.082Z,18.83
2023-05-07T21:33:06.266Z,18.63
2023-05-07T21:35:36.660Z,17.60
2023-05-07T21:38:04.128Z,23.03
2023-05-07T21:40:31.280Z,24.07
2023-05-07T21:43:00.446Z,30.47
2023-05-07T21:45:27.352Z,20.40
2023-05-07T21:47:54.313Z,28.43
2023-05-07T21:50:22.113Z,26.73
2023-05-07T21:52:49.834Z,26.73
2023-05-07T21:55:18.910Z,38.37
2023-05-07T21:57:53.716Z,45.87
2023-05-07T22:00:29.575Z,40.80
2023-05-07T22:02:56.564Z,51.90
2023-05-07T22:05:23.702Z,51.10
2023-05-07T22:07:50.922Z,59.00
2023-05-07T22:10:22.816Z,57.10
2023-05-07T22:12:50.179Z,53.77
2023-05-07T22:15:17.346Z,53.43
2023-05-07T22:17:44.473Z,40.13
2023-05-07T22:20:12.331Z,41.17
2023-05-07T22:22:47.864Z,46.23
2023-05-07T22:25:16.002Z,19.97
2023-05-07T22:27:43.295Z,18.27
2023-05-07T22:30:11.154Z,21.03
2023-05-07T22:32:38.457Z,17.97
2023-05-07T22:35:05.689Z,14.43
2023-05-07T22:37:32.518Z,41.40
2023-05-07T22:39:59.425Z,43.27
2023-05-07T22:42:26.363Z,41.03
2023-05-07T22:44:56.743Z,25.47
2023-05-07T22:47:23.920Z,35.67
2023-05-07T22:49:50.831Z,30.27
2023-05-07T22:52:17.849Z,22.13
2023-05-07T22:54:44.774Z,33.90
2023-05-07T22:57:11.643Z,28.23
2023-05-07T22:59:38.544Z,40.07
2023-05-07T23:02:05.570Z,40.50
2023-05-07T23:04:32.470Z,25.00
2023-05-07T23:06:59.307Z,30.10
2023-05-07T23:09:26.215Z,33.73
2023-05-07T23:11:53.073Z,39.40
2023-05-07T23:14:21.207Z,27.87
2023-05-07T23:16:49.069Z,39.20
2023-05-07T23:19:15.992Z,41.03
2023-05-07T23:21:42.911Z,23.77
2023-05-07T23:24:09.872Z,27.87
2023-05-07T23:26:36.829Z,40.23
2023-05-07T23:29:04.685Z,34.83
2023-05-07T23:31:31.700Z,38.93
2023-05-07T23:33:58.645Z,45.90
2023-05-07T23:36:25.632Z,26.10
2023-05-07T23:38:52.530Z,38.03
2023-05-07T23:41:19.372Z,18.33
2023-05-07T23:43:46.281Z,12.37
2023-05-07T23:46:13.186Z,12.30
2023-05-07T23:48:40.088Z,13.80
2023-05-07T23:51:07.027Z,13.60
2023-05-07T23:53:33.954Z,12.60
2023-05-07T23:56:00.859Z,12.03
2023-05-07T23:58:27.852Z,12.43
